Time;durP1;ratioP1;P1;durP2;ratioP2;P2;SDS_P1;SDS_P2;PMS_P1;PMS_P2;Temp;Humidity;BMP_temperature;BMP_pressure;BME280_temperature;BME280_humidity;BME280_pressure;Samples;Min_cycle;Max_cycle;Signal;HPM_P1;HPM_P2
2021/10/04 00:01:19;;;;;;;;;;;20.60;62.40;;;;;;5075439;28;19916;-56
2021/10/04 00:03:44;;;;;;;;;;;20.60;62.30;;;;;;5076073;28;19966;-57
2021/10/04 00:06:10;;;;;;;;;;;20.60;62.10;;;;;;5059775;28;19916;-55
2021/10/04 00:08:35;;;;;;;;;;;20.60;62.30;;;;;;5081176;28;20619;-56
2021/10/04 00:11:00;;;;;;;;;;;20.60;62.50;;;;;;5074918;28;19924;-56
2021/10/04 00:13:26;;;;;;;;;;;20.60;62.40;;;;;;5083368;28;19956;-57
2021/10/04 00:15:52;;;;;;;;;;;20.60;62.40;;;;;;5084289;28;19920;-56
2021/10/04 00:18:17;;;;;;;;;;;20.60;62.20;;;;;;5081994;28;20380;-55
2021/10/04 00:20:42;;;;;;;;;;;20.60;62.30;;;;;;5085179;28;19912;-52
2021/10/04 00:23:08;;;;;;;;;;;20.60;62.40;;;;;;5085065;28;20411;-56
2021/10/04 00:25:33;;;;;;;;;;;20.60;62.40;;;;;;5076011;28;19931;-57
2021/10/04 00:27:59;;;;;;;;;;;20.60;62.60;;;;;;5072820;28;19924;-55
2021/10/04 00:30:24;;;;;;;;;;;20.60;62.60;;;;;;5081334;28;20574;-54
2021/10/04 00:32:50;;;;;;;;;;;20.60;62.60;;;;;;5074572;28;19916;-55
2021/10/04 00:35:16;;;;;;;;;;;20.50;62.70;;;;;;5084557;28;19944;-53
2021/10/04 00:37:41;;;;;;;;;;;20.50;62.70;;;;;;5085021;28;20020;-54
2021/10/04 00:40:08;;;;;;;;;;;20.60;62.80;;;;;;5078175;28;19955;-58
2021/10/04 00:42:33;;;;;;;;;;;20.60;62.80;;;;;;5052786;28;19927;-58
2021/10/04 00:44:58;;;;;;;;;;;20.60;62.70;;;;;;5070057;28;19921;-52
2021/10/04 00:47:24;;;;;;;;;;;20.60;62.80;;;;;;5064680;28;19969;-55
2021/10/04 00:49:49;;;;;;;;;;;20.60;62.80;;;;;;5081100;28;19955;-56
2021/10/04 00:52:15;;;;;;;;;;;20.60;62.80;;;;;;5058153;28;19916;-54
2021/10/04 00:54:40;;;;;;;;;;;20.60;62.90;;;;;;5076915;28;20399;-55
2021/10/04 00:57:06;;;;;;;;;;;20.50;62.90;;;;;;5078729;28;19922;-56
2021/10/04 00:59:31;;;;;;;;;;;20.60;62.80;;;;;;5073756;28;19916;-54
2021/10/04 01:01:57;;;;;;;;;;;20.60;62.90;;;;;;5076149;28;19917;-54
2021/10/04 01:04:26;;;;;;;;;;;20.60;62.80;;;;;;5067408;28;20103;-58
2021/10/04 01:06:52;;;;;;;;;;;20.60;62.70;;;;;;5071057;28;19947;-52
2021/10/04 01:09:17;;;;;;;;;;;20.60;62.80;;;;;;5060951;28;19961;-55
2021/10/04 01:11:42;;;;;;;;;;;20.60;62.60;;;;;;5048856;28;19925;-58
2021/10/04 01:14:08;;;;;;;;;;;20.60;62.70;;;;;;5071857;28;19917;-58
2021/10/04 01:16:33;;;;;;;;;;;20.60;62.60;;;;;;5056048;28;19927;-54
2021/10/04 01:18:59;;;;;;;;;;;20.60;62.50;;;;;;5064623;28;19925;-57
2021/10/04 01:21:24;;;;;;;;;;;20.60;62.60;;;;;;5064297;28;19963;-53
2021/10/04 01:23:50;;;;;;;;;;;20.60;62.70;;;;;;5068248;28;19916;-53
2021/10/04 01:26:15;;;;;;;;;;;20.60;62.80;;;;;;5076115;28;19928;-55
2021/10/04 01:28:41;;;;;;;;;;;20.60;62.90;;;;;;5051397;28;19981;-55
2021/10/04 01:31:06;;;;;;;;;;;20.60;62.90;;;;;;5070471;28;19916;-57
2021/10/04 01:33:32;;;;;;;;;;;20.60;62.90;;;;;;5067905;28;19931;-56
2021/10/04 01:35:57;;;;;;;;;;;20.60;62.80;;;;;;5067163;28;19922;-57
2021/10/04 01:38:22;;;;;;;;;;;20.60;62.90;;;;;;5071987;28;20585;-56
2021/10/04 01:40:48;;;;;;;;;;;20.60;62.90;;;;;;5075167;28;19916;-56
2021/10/04 01:43:13;;;;;;;;;;;20.60;63.00;;;;;;5036693;28;19923;-57
2021/10/04 01:45:39;;;;;;;;;;;20.60;62.90;;;;;;5079659;28;19927;-55
2021/10/04 01:48:04;;;;;;;;;;;20.60;63.00;;;;;;5066524;28;20413;-56
2021/10/04 01:50:30;;;;;;;;;;;20.60;62.90;;;;;;5072063;28;19920;-57
2021/10/04 01:52:56;;;;;;;;;;;20.60;63.00;;;;;;5067849;28;20098;-57
2021/10/04 01:55:22;;;;;;;;;;;20.60;63.10;;;;;;5044795;28;19917;-53
2021/10/04 01:57:47;;;;;;;;;;;20.60;63.00;;;;;;5070726;28;20389;-55
2021/10/04 02:00:14;;;;;;;;;;;20.60;63.00;;;;;;5073248;28;19919;-59
2021/10/04 02:02:39;;;;;;;;;;;20.60;63.00;;;;;;5065819;28;19920;-56
2021/10/04 02:05:05;;;;;;;;;;;20.60;63.10;;;;;;5038577;28;20288;-54
2021/10/04 02:07:31;;;;;;;;;;;20.60;63.10;;;;;;5071053;28;20294;-54
2021/10/04 02:09:57;;;;;;;;;;;20.60;62.90;;;;;;5076460;28;19922;-55
2021/10/04 02:12:22;;;;;;;;;;;20.70;62.90;;;;;;5083580;28;20365;-53
2021/10/04 02:14:48;;;;;;;;;;;20.60;62.90;;;;;;5081565;28;19912;-57
2021/10/04 02:17:13;;;;;;;;;;;20.60;63.00;;;;;;5075121;28;20389;-55
2021/10/04 02:19:39;;;;;;;;;;;20.60;63.00;;;;;;5071185;28;20034;-54
2021/10/04 02:22:04;;;;;;;;;;;20.60;63.00;;;;;;5058052;28;19921;-56
2021/10/04 02:24:30;;;;;;;;;;;20.60;63.00;;;;;;5057329;28;20289;-55
2021/10/04 02:26:55;;;;;;;;;;;20.60;63.00;;;;;;5054669;28;19927;-57
2021/10/04 02:29:21;;;;;;;;;;;20.60;63.00;;;;;;5068472;28;20717;-52
2021/10/04 02:31:46;;;;;;;;;;;20.60;63.00;;;;;;5075376;28;19993;-54
2021/10/04 02:34:11;;;;;;;;;;;20.70;63.10;;;;;;5063926;28;19931;-54
2021/10/04 02:36:37;;;;;;;;;;;20.60;63.10;;;;;;5067234;28;19916;-54
2021/10/04 02:39:03;;;;;;;;;;;20.60;63.10;;;;;;5063457;28;20512;-58
2021/10/04 02:41:28;;;;;;;;;;;20.60;63.10;;;;;;5075582;28;20014;-56
2021/10/04 02:43:54;;;;;;;;;;;20.70;63.10;;;;;;5074587;28;19916;-53
2021/10/04 02:46:19;;;;;;;;;;;20.70;62.90;;;;;;5064186;28;19965;-56
2021/10/04 02:48:44;;;;;;;;;;;20.60;63.00;;;;;;5070034;28;19955;-53
2021/10/04 02:51:10;;;;;;;;;;;20.60;62.90;;;;;;5068712;28;19950;-53
2021/10/04 02:53:35;;;;;;;;;;;20.70;63.00;;;;;;5064664;28;19930;-56
2021/10/04 02:56:01;;;;;;;;;;;20.70;63.00;;;;;;5070279;28;20031;-57
2021/10/04 02:58:26;;;;;;;;;;;20.60;63.00;;;;;;5069504;28;19920;-52
2021/10/04 03:00:52;;;;;;;;;;;20.60;63.10;;;;;;5049174;28;19916;-53
2021/10/04 03:03:17;;;;;;;;;;;20.60;63.10;;;;;;5070185;28;19916;-58
2021/10/04 03:05:42;;;;;;;;;;;20.60;63.10;;;;;;5061204;28;20296;-54
2021/10/04 03:08:08;;;;;;;;;;;20.60;63.20;;;;;;5072712;28;19920;-55
2021/10/04 03:10:34;;;;;;;;;;;20.60;63.10;;;;;;5069990;28;19974;-55
2021/10/04 03:12:59;;;;;;;;;;;20.60;63.10;;;;;;5071718;28;19917;-54
2021/10/04 03:15:25;;;;;;;;;;;20.60;63.10;;;;;;5065218;28;19966;-53
2021/10/04 03:17:50;;;;;;;;;;;20.60;63.10;;;;;;5074830;28;19920;-56
2021/10/04 03:20:15;;;;;;;;;;;20.60;63.10;;;;;;5072930;28;20214;-56
2021/10/04 03:22:41;;;;;;;;;;;20.60;63.00;;;;;;5075876;28;19935;-54
2021/10/04 03:25:07;;;;;;;;;;;20.60;63.10;;;;;;5073088;28;19916;-55
2021/10/04 03:27:32;;;;;;;;;;;20.60;63.10;;;;;;5074108;28;19936;-55
2021/10/04 03:29:58;;;;;;;;;;;20.70;63.10;;;;;;5070872;28;19916;-55
2021/10/04 03:32:23;;;;;;;;;;;20.60;63.10;;;;;;5067700;28;19959;-55
2021/10/04 03:34:49;;;;;;;;;;;20.60;63.10;;;;;;5069869;28;19923;-56
2021/10/04 03:37:15;;;;;;;;;;;20.60;63.00;;;;;;5057858;28;20403;-58
2021/10/04 03:39:41;;;;;;;;;;;20.70;63.10;;;;;;5073852;28;20106;-53
2021/10/04 03:42:06;;;;;;;;;;;20.70;63.20;;;;;;5069921;28;20374;-58
2021/10/04 03:44:31;;;;;;;;;;;20.60;63.10;;;;;;5068482;28;20297;-55
2021/10/04 03:46:57;;;;;;;;;;;20.60;63.10;;;;;;5064876;28;19916;-51
2021/10/04 03:49:22;;;;;;;;;;;20.60;63.20;;;;;;5065365;28;20177;-53
2021/10/04 03:51:48;;;;;;;;;;;20.70;63.30;;;;;;5074476;28;20550;-54
2021/10/04 03:54:13;;;;;;;;;;;20.60;63.80;;;;;;5073180;28;19925;-53
2021/10/04 03:56:39;;;;;;;;;;;20.60;63.10;;;;;;5080695;28;19916;-58
2021/10/04 03:59:04;;;;;;;;;;;20.70;63.00;;;;;;5077330;28;19924;-57
2021/10/04 04:01:30;;;;;;;;;;;20.70;63.10;;;;;;5070932;28;19939;-55
2021/10/04 04:03:55;;;;;;;;;;;20.60;63.10;;;;;;5072969;28;19917;-56
2021/10/04 04:06:20;;;;;;;;;;;20.60;63.10;;;;;;5075543;28;20384;-55
2021/10/04 04:08:46;;;;;;;;;;;20.60;63.20;;;;;;5076604;28;19923;-56
2021/10/04 04:11:11;;;;;;;;;;;20.60;63.10;;;;;;5063504;28;19926;-57
2021/10/04 04:13:37;;;;;;;;;;;20.60;63.10;;;;;;5075357;28;20281;-54
2021/10/04 04:16:04;;;;;;;;;;;20.60;63.10;;;;;;5075990;28;19913;-54
2021/10/04 04:18:30;;;;;;;;;;;20.60;63.30;;;;;;5085154;28;19966;-58
2021/10/04 04:20:55;;;;;;;;;;;20.60;63.40;;;;;;5079969;28;19917;-56
2021/10/04 04:23:21;;;;;;;;;;;20.60;63.40;;;;;;5079740;28;20443;-55
2021/10/04 04:25:46;;;;;;;;;;;20.60;63.40;;;;;;5071675;28;19920;-53
2021/10/04 04:28:12;;;;;;;;;;;20.60;63.50;;;;;;5069224;28;19924;-56
2021/10/04 04:30:37;;;;;;;;;;;20.60;63.70;;;;;;5069851;28;19923;-55
2021/10/04 04:33:03;;;;;;;;;;;20.60;63.70;;;;;;5082780;28;20443;-54
2021/10/04 04:35:28;;;;;;;;;;;20.70;63.80;;;;;;5075195;28;19916;-53
2021/10/04 04:37:54;;;;;;;;;;;20.70;64.00;;;;;;5049986;28;19928;-55
2021/10/04 04:40:19;;;;;;;;;;;20.60;64.10;;;;;;5070075;28;19966;-52
2021/10/04 04:42:45;;;;;;;;;;;20.60;64.20;;;;;;5071887;28;20399;-57
2021/10/04 04:45:11;;;;;;;;;;;20.70;64.10;;;;;;5066168;28;19946;-54
2021/10/04 04:47:36;;;;;;;;;;;20.70;63.90;;;;;;5069979;28;19927;-55
2021/10/04 04:50:02;;;;;;;;;;;20.70;63.90;;;;;;5044551;28;20027;-56
2021/10/04 04:52:28;;;;;;;;;;;20.70;63.70;;;;;;5082186;28;19954;-57
2021/10/04 04:54:53;;;;;;;;;;;20.70;64.30;;;;;;5083535;28;20412;-52
2021/10/04 04:57:19;;;;;;;;;;;20.70;64.00;;;;;;5083712;28;19920;-56
2021/10/04 04:59:44;;;;;;;;;;;20.70;64.00;;;;;;5083739;28;19966;-53
2021/10/04 05:02:10;;;;;;;;;;;20.70;64.20;;;;;;5083250;28;19947;-52
2021/10/04 05:04:35;;;;;;;;;;;20.70;64.50;;;;;;5065314;28;20377;-56
2021/10/04 05:07:01;;;;;;;;;;;20.70;64.30;;;;;;5082860;28;19912;-52
2021/10/04 05:09:26;;;;;;;;;;;20.70;64.00;;;;;;5083219;28;19999;-53
2021/10/04 05:11:51;;;;;;;;;;;20.70;63.80;;;;;;5083865;28;19919;-52
2021/10/04 05:14:17;;;;;;;;;;;20.70;63.80;;;;;;5084564;28;20629;-54
2021/10/04 05:16:42;;;;;;;;;;;20.70;63.60;;;;;;5065252;28;20003;-55
2021/10/04 05:19:08;;;;;;;;;;;20.70;63.60;;;;;;5081350;28;19959;-52
2021/10/04 05:21:33;;;;;;;;;;;20.70;63.40;;;;;;5065346;28;20525;-53
2021/10/04 05:23:59;;;;;;;;;;;20.70;63.50;;;;;;5065216;28;19939;-54
2021/10/04 05:26:24;;;;;;;;;;;20.70;63.40;;;;;;5064780;28;20634;-54
2021/10/04 05:28:50;;;;;;;;;;;20.70;63.40;;;;;;5082565;28;20465;-55
2021/10/04 05:31:15;;;;;;;;;;;20.70;63.40;;;;;;5083681;28;19981;-54
2021/10/04 05:33:41;;;;;;;;;;;20.70;63.30;;;;;;5083628;28;19923;-56
2021/10/04 05:36:06;;;;;;;;;;;20.70;63.20;;;;;;5083540;28;19913;-57
2021/10/04 05:38:31;;;;;;;;;;;20.80;63.20;;;;;;5083016;28;20262;-54
2021/10/04 05:40:57;;;;;;;;;;;20.70;63.20;;;;;;5082376;28;19912;-55
2021/10/04 05:43:23;;;;;;;;;;;20.70;63.30;;;;;;5083109;28;19942;-53
2021/10/04 05:45:48;;;;;;;;;;;20.70;63.20;;;;;;5083270;28;20391;-56
2021/10/04 05:48:14;;;;;;;;;;;20.70;63.90;;;;;;5082785;28;19913;-54
2021/10/04 05:50:39;;;;;;;;;;;20.70;64.10;;;;;;5083222;28;19916;-56
2021/10/04 05:53:04;;;;;;;;;;;20.60;64.00;;;;;;5083020;28;19924;-52
2021/10/04 05:55:30;;;;;;;;;;;20.70;63.90;;;;;;5083281;28;19918;-55
2021/10/04 05:57:55;;;;;;;;;;;20.70;63.60;;;;;;5081507;28;20500;-55
2021/10/04 06:00:21;;;;;;;;;;;20.70;63.50;;;;;;5082513;28;19912;-54
2021/10/04 06:02:46;;;;;;;;;;;20.70;63.20;;;;;;5077638;28;19919;-54
2021/10/04 06:05:12;;;;;;;;;;;20.70;63.10;;;;;;5070811;28;19970;-55
2021/10/04 06:07:37;;;;;;;;;;;20.70;63.20;;;;;;5065807;28;19919;-53
2021/10/04 06:10:04;;;;;;;;;;;20.70;63.00;;;;;;5082887;28;19912;-54
2021/10/04 06:12:29;;;;;;;;;;;20.70;63.10;;;;;;5083804;28;19951;-54
2021/10/04 06:14:55;;;;;;;;;;;20.60;62.90;;;;;;5084023;28;19955;-54
2021/10/04 06:17:20;;;;;;;;;;;20.70;62.90;;;;;;5065048;28;20343;-54
2021/10/04 06:19:46;;;;;;;;;;;20.70;62.90;;;;;;5083350;28;19923;-53
2021/10/04 06:22:11;;;;;;;;;;;20.70;62.80;;;;;;5065846;28;19912;-54
2021/10/04 06:24:39;;;;;;;;;;;20.70;62.80;;;;;;5083369;28;21287;-54
2021/10/04 06:27:04;;;;;;;;;;;20.70;62.80;;;;;;5064854;28;19919;-53
2021/10/04 06:29:29;;;;;;;;;;;20.70;62.80;;;;;;5082617;28;20300;-54
2021/10/04 06:31:55;;;;;;;;;;;20.70;62.70;;;;;;5083186;28;19920;-55
2021/10/04 06:34:20;;;;;;;;;;;20.70;62.80;;;;;;5083166;28;19922;-55
2021/10/04 06:36:46;;;;;;;;;;;20.70;62.80;;;;;;5083587;28;19977;-55
2021/10/04 06:39:11;;;;;;;;;;;20.70;62.90;;;;;;5082871;28;20290;-57
2021/10/04 06:41:40;;;;;;;;;;;20.70;62.80;;;;;;5081443;28;19943;-57
2021/10/04 06:44:08;;;;;;;;;;;20.70;62.80;;;;;;5048013;28;19939;-57
2021/10/04 06:46:34;;;;;;;;;;;20.70;62.80;;;;;;5082259;28;19916;-54
2021/10/04 06:49:00;;;;;;;;;;;20.70;63.00;;;;;;5083003;28;20458;-58
2021/10/04 06:54:02;;;;;;;;;;;20.70;63.20;;;;;;5043367;28;19925;-52
2021/10/04 06:56:27;;;;;;;;;;;20.70;63.30;;;;;;5050763;28;20410;-51
2021/10/04 06:58:53;;;;;;;;;;;20.70;63.20;;;;;;5062590;28;19987;-56
2021/10/04 07:01:18;;;;;;;;;;;20.70;63.20;;;;;;5049923;28;19967;-51
2021/10/04 07:03:44;;;;;;;;;;;20.70;63.00;;;;;;5056389;28;20389;-54
2021/10/04 07:06:09;;;;;;;;;;;20.70;63.00;;;;;;5051739;28;19913;-54
2021/10/04 07:08:35;;;;;;;;;;;20.70;63.00;;;;;;5042340;28;19920;-52
2021/10/04 07:11:00;;;;;;;;;;;20.70;62.90;;;;;;5051055;28;19996;-53
2021/10/04 07:13:26;;;;;;;;;;;20.70;63.00;;;;;;5051603;28;19913;-56
2021/10/04 07:15:51;;;;;;;;;;;20.70;62.80;;;;;;5055997;28;19920;-56
2021/10/04 07:18:17;;;;;;;;;;;20.70;62.70;;;;;;5050165;28;19978;-56
2021/10/04 07:20:42;;;;;;;;;;;20.70;62.80;;;;;;5059490;28;19975;-52
2021/10/04 07:23:07;;;;;;;;;;;20.70;62.80;;;;;;5062564;28;19961;-56
2021/10/04 07:25:33;;;;;;;;;;;20.70;62.80;;;;;;5054617;28;20412;-51
2021/10/04 07:27:59;;;;;;;;;;;20.70;62.80;;;;;;5051021;28;19948;-54
2021/10/04 07:30:24;;;;;;;;;;;20.70;62.90;;;;;;5057258;28;19938;-52
2021/10/04 07:32:49;;;;;;;;;;;20.60;62.80;;;;;;5063564;28;20096;-51
2021/10/04 07:35:15;;;;;;;;;;;20.70;62.80;;;;;;5046855;28;20569;-51
2021/10/04 07:37:40;;;;;;;;;;;20.70;62.70;;;;;;5057174;28;20003;-52
2021/10/04 07:40:06;;;;;;;;;;;20.70;62.60;;;;;;5045405;28;20374;-54
2021/10/04 07:42:33;;;;;;;;;;;20.70;62.80;;;;;;5025343;28;20901;-54
2021/10/04 07:44:58;;;;;;;;;;;20.70;62.70;;;;;;5058904;28;20396;-54
2021/10/04 07:47:24;;;;;;;;;;;20.70;62.50;;;;;;5054496;28;19916;-56
2021/10/04 07:49:49;;;;;;;;;;;20.80;62.60;;;;;;5066676;28;19912;-56
2021/10/04 07:52:15;;;;;;;;;;;20.70;62.30;;;;;;5066325;28;19956;-54
2021/10/04 07:54:40;;;;;;;;;;;20.70;62.30;;;;;;5050745;28;19916;-51
2021/10/04 07:57:06;;;;;;;;;;;20.70;62.40;;;;;;5059089;28;19912;-53
2021/10/04 07:59:31;;;;;;;;;;;20.80;62.20;;;;;;5057963;28;19913;-52
2021/10/04 08:01:57;;;;;;;;;;;20.70;62.30;;;;;;5042429;28;19920;-52
2021/10/04 08:04:23;;;;;;;;;;;20.80;62.30;;;;;;5066654;28;20370;-52
2021/10/04 08:06:48;;;;;;;;;;;20.70;62.30;;;;;;5055068;28;20026;-56
2021/10/04 08:09:14;;;;;;;;;;;20.70;62.30;;;;;;5028443;28;19978;-51
2021/10/04 08:11:39;;;;;;;;;;;20.70;62.60;;;;;;5061430;28;19913;-53
2021/10/04 08:14:04;;;;;;;;;;;20.70;62.80;;;;;;5065205;28;20467;-54
2021/10/04 08:16:30;;;;;;;;;;;20.70;62.60;;;;;;5049021;28;19917;-54
2021/10/04 08:18:55;;;;;;;;;;;20.70;62.80;;;;;;5035909;28;19977;-56
2021/10/04 08:21:21;;;;;;;;;;;20.70;62.70;;;;;;5050105;28;19920;-56
2021/10/04 08:23:47;;;;;;;;;;;20.70;62.80;;;;;;5053659;28;19920;-51
2021/10/04 08:26:12;;;;;;;;;;;20.80;62.80;;;;;;5058660;28;20247;-51
2021/10/04 08:28:38;;;;;;;;;;;20.70;62.80;;;;;;5053955;28;19919;-51
2021/10/04 08:31:04;;;;;;;;;;;20.80;62.80;;;;;;5051689;28;20018;-55
2021/10/04 08:33:30;;;;;;;;;;;20.70;63.00;;;;;;5061021;28;20449;-52
2021/10/04 08:35:56;;;;;;;;;;;20.70;63.00;;;;;;5049929;28;19917;-50
2021/10/04 08:38:21;;;;;;;;;;;20.70;62.90;;;;;;5054456;28;19916;-51
2021/10/04 08:40:47;;;;;;;;;;;20.70;63.00;;;;;;5035897;28;19982;-52
2021/10/04 08:43:12;;;;;;;;;;;20.70;62.90;;;;;;5048052;28;19920;-52
2021/10/04 08:45:38;;;;;;;;;;;20.70;62.80;;;;;;5055646;28;20011;-51
2021/10/04 08:48:03;;;;;;;;;;;20.70;62.80;;;;;;5036573;28;19920;-50
2021/10/04 08:50:30;;;;;;;;;;;20.70;62.60;;;;;;5045401;28;19998;-54
2021/10/04 08:52:57;;;;;;;;;;;20.60;62.90;;;;;;5046434;28;19921;-57
2021/10/04 08:55:22;;;;;;;;;;;20.60;63.30;;;;;;5047774;28;19913;-55
2021/10/04 08:57:48;;;;;;;;;;;20.60;63.30;;;;;;5062412;28;20007;-55
2021/10/04 09:00:13;;;;;;;;;;;20.70;63.00;;;;;;5050683;28;19921;-52
2021/10/04 09:02:39;;;;;;;;;;;20.70;63.00;;;;;;5051467;28;20011;-56
2021/10/04 09:05:27;;;;;;;;;;;20.60;62.80;;;;;;5052134;28;19912;-55
2021/10/04 09:07:54;;;;;;;;;;;20.60;63.10;;;;;;5062220;28;19913;-53
2021/10/04 09:10:20;;;;;;;;;;;20.40;63.30;;;;;;5032775;28;19919;-56
2021/10/04 09:12:47;;;;;;;;;;;20.50;63.70;;;;;;5046627;28;19917;-56
2021/10/04 09:15:30;;;;;;;;;;;20.60;63.40;;;;;;5047673;28;20011;-53
2021/10/04 09:17:57;;;;;;;;;;;20.60;62.90;;;;;;5052382;28;19917;-50
2021/10/04 09:20:23;;;;;;;;;;;20.40;63.00;;;;;;5033877;28;19919;-52
2021/10/04 09:22:48;;;;;;;;;;;20.30;62.50;;;;;;5050785;28;19913;-52
2021/10/04 09:25:14;;;;;;;;;;;20.30;63.10;;;;;;5057414;28;19917;-55
2021/10/04 09:27:40;;;;;;;;;;;20.40;63.80;;;;;;5054989;28;19935;-54
2021/10/04 09:30:22;;;;;;;;;;;20.50;63.60;;;;;;5037597;28;19952;-55
2021/10/04 09:32:48;;;;;;;;;;;20.40;62.90;;;;;;5057290;28;20588;-56
2021/10/04 09:35:16;;;;;;;;;;;20.30;63.50;;;;;;5048940;28;20540;-55
2021/10/04 09:37:42;;;;;;;;;;;20.40;63.70;;;;;;5050285;28;19920;-56
2021/10/04 09:40:27;;;;;;;;;;;20.40;62.90;;;;;;5054086;28;20008;-52
2021/10/04 09:42:53;;;;;;;;;;;20.40;63.50;;;;;;5005099;28;20366;-54
2021/10/04 09:45:18;;;;;;;;;;;20.50;63.30;;;;;;5057031;28;19920;-51
2021/10/04 09:47:45;;;;;;;;;;;20.50;62.70;;;;;;5048541;28;19921;-55
2021/10/04 09:50:37;;;;;;;;;;;20.50;62.50;;;;;;5044600;28;20266;-52
2021/10/04 09:53:03;;;;;;;;;;;20.50;62.90;;;;;;5044160;28;20004;-54
2021/10/04 09:55:28;;;;;;;;;;;20.50;63.10;;;;;;5052488;28;20091;-56
2021/10/04 09:58:00;;;;;;;;;;;20.50;62.50;;;;;;5044119;28;19924;-61
2021/10/04 10:00:26;;;;;;;;;;;20.30;63.50;;;;;;5048859;28;19959;-54
2021/10/04 10:02:54;;;;;;;;;;;20.40;63.60;;;;;;5028736;28;19941;-52
2021/10/04 10:05:27;;;;;;;;;;;20.50;63.30;;;;;;5015223;28;19913;-56
2021/10/04 10:07:52;;;;;;;;;;;20.50;63.30;;;;;;5026090;28;19920;-55
2021/10/04 10:10:18;;;;;;;;;;;20.50;63.30;;;;;;5025801;28;19912;-55
2021/10/04 10:12:43;;;;;;;;;;;20.50;63.20;;;;;;5044287;28;19927;-51
2021/10/04 10:15:09;;;;;;;;;;;20.60;63.20;;;;;;5045468;28;19943;-55
2021/10/04 10:17:34;;;;;;;;;;;20.60;63.30;;;;;;5053807;28;20424;-55
2021/10/04 10:20:00;;;;;;;;;;;20.60;63.30;;;;;;5050121;28;19920;-52
2021/10/04 10:22:29;;;;;;;;;;;20.60;62.50;;;;;;5048577;28;19991;-51
2021/10/04 10:24:55;;;;;;;;;;;20.60;62.00;;;;;;5048405;28;19920;-56
2021/10/04 10:27:20;;;;;;;;;;;20.50;62.40;;;;;;5045954;28;19920;-52
2021/10/04 10:29:46;;;;;;;;;;;20.50;62.20;;;;;;5044639;28;19916;-51
2021/10/04 10:32:12;;;;;;;;;;;20.40;61.80;;;;;;5045500;28;19912;-53
2021/10/04 10:34:39;;;;;;;;;;;20.40;62.10;;;;;;5052276;28;19912;-51
2021/10/04 10:37:21;;;;;;;;;;;20.40;63.00;;;;;;5061032;28;19913;-51
2021/10/04 10:39:51;;;;;;;;;;;20.30;61.10;;;;;;5062381;28;19916;-52
2021/10/04 10:42:26;;;;;;;;;;;20.40;62.70;;;;;;5055727;28;19995;-51
2021/10/04 10:44:58;;;;;;;;;;;20.40;62.10;;;;;;5044011;28;19913;-55
2021/10/04 10:47:39;;;;;;;;;;;20.40;62.10;;;;;;5020471;28;19913;-50
2021/10/04 10:50:08;;;;;;;;;;;20.40;62.20;;;;;;5050116;28;19912;-52
2021/10/04 10:52:34;;;;;;;;;;;20.40;62.00;;;;;;5048430;28;19921;-55
2021/10/04 10:54:59;;;;;;;;;;;20.40;61.50;;;;;;5064905;22;19935;-57
2021/10/04 10:57:44;;;;;;;;;;;20.30;62.90;;;;;;5052619;28;19920;-54
2021/10/04 11:00:15;;;;;;;;;;;20.40;63.40;;;;;;5057592;28;19951;-56
2021/10/04 11:02:53;;;;;;;;;;;20.40;63.10;;;;;;5059453;28;20007;-56
2021/10/04 11:05:37;;;;;;;;;;;20.40;63.00;;;;;;5053738;28;19920;-58
2021/10/04 11:08:06;;;;;;;;;;;20.50;62.60;;;;;;5058339;28;20361;-60
2021/10/04 11:10:31;;;;;;;;;;;20.40;62.90;;;;;;5059279;28;19913;-56
2021/10/04 11:13:12;;;;;;;;;;;20.50;62.80;;;;;;5053955;28;19927;-59
2021/10/04 11:15:38;;;;;;;;;;;20.50;62.90;;;;;;5051910;28;19919;-59
2021/10/04 11:18:03;;;;;;;;;;;20.40;63.10;;;;;;5044084;28;19925;-58
2021/10/04 11:20:29;;;;;;;;;;;20.40;63.00;;;;;;5062345;28;19918;-58
2021/10/04 11:23:01;;;;;;;;;;;20.50;63.20;;;;;;5045696;28;20003;-57
2021/10/04 11:25:27;;;;;;;;;;;20.40;63.20;;;;;;5063958;28;20568;-58
2021/10/04 11:27:52;;;;;;;;;;;20.50;63.30;;;;;;5064305;28;19917;-54
2021/10/04 11:30:18;;;;;;;;;;;20.50;63.10;;;;;;5062754;28;19926;-59
2021/10/04 11:33:03;;;;;;;;;;;20.50;63.10;;;;;;5063482;28;19963;-57
2021/10/04 11:35:28;;;;;;;;;;;20.50;63.10;;;;;;5062609;28;19916;-59
2021/10/04 11:37:54;;;;;;;;;;;20.40;63.30;;;;;;5063317;28;20332;-59
2021/10/04 11:40:19;;;;;;;;;;;20.50;63.30;;;;;;5063035;28;19913;-58
2021/10/04 11:42:45;;;;;;;;;;;20.50;63.20;;;;;;5045119;28;19912;-55
2021/10/04 11:45:10;;;;;;;;;;;20.50;63.20;;;;;;5045334;28;19925;-58
2021/10/04 11:47:39;;;;;;;;;;;20.50;62.90;;;;;;5062748;28;20459;-58
2021/10/04 11:50:05;;;;;;;;;;;20.50;62.90;;;;;;5046858;28;19919;-58
2021/10/04 11:52:30;;;;;;;;;;;20.40;63.00;;;;;;5046132;28;19912;-56
2021/10/04 11:54:56;;;;;;;;;;;20.50;62.80;;;;;;5045476;28;19921;-57
2021/10/04 11:57:24;;;;;;;;;;;20.50;62.80;;;;;;5062382;28;19984;-59
2021/10/04 11:59:53;;;;;;;;;;;20.50;62.90;;;;;;5061954;28;19919;-58
2021/10/04 12:02:37;;;;;;;;;;;20.40;61.70;;;;;;5063408;28;19912;-56
2021/10/04 12:05:09;;;;;;;;;;;20.30;61.60;;;;;;5052485;28;20001;-58
2021/10/04 12:07:34;;;;;;;;;;;20.40;63.40;;;;;;5063434;28;20029;-57
2021/10/04 12:10:00;;;;;;;;;;;20.40;63.00;;;;;;5062022;28;20020;-59
2021/10/04 12:12:32;;;;;;;;;;;20.40;62.90;;;;;;5063758;28;20527;-56
2021/10/04 12:14:58;;;;;;;;;;;20.40;63.10;;;;;;5063997;28;20003;-60
2021/10/04 12:17:23;;;;;;;;;;;20.30;61.90;;;;;;5045122;28;20011;-59
2021/10/04 12:19:49;;;;;;;;;;;20.40;63.10;;;;;;5063453;28;19918;-58
2021/10/04 12:22:27;;;;;;;;;;;20.40;62.50;;;;;;5063477;28;19920;-56
2021/10/04 12:24:52;;;;;;;;;;;20.30;63.10;;;;;;5030984;28;19927;-59
2021/10/04 12:27:18;;;;;;;;;;;20.40;63.30;;;;;;5061780;28;24962;-58
2021/10/04 12:30:00;;;;;;;;;;;20.40;63.10;;;;;;5062864;28;20309;-56
2021/10/04 12:32:26;;;;;;;;;;;20.40;63.10;;;;;;5062463;28;19913;-56
2021/10/04 12:35:00;;;;;;;;;;;20.50;63.10;;;;;;5063462;28;19913;-54
2021/10/04 12:37:27;;;;;;;;;;;20.50;63.10;;;;;;5063171;28;19920;-55
2021/10/04 12:39:52;;;;;;;;;;;20.50;63.20;;;;;;5062274;28;19917;-54
2021/10/04 12:42:19;;;;;;;;;;;20.40;63.30;;;;;;5052487;28;19978;-57
2021/10/04 12:44:45;;;;;;;;;;;20.50;63.10;;;;;;5051150;28;19939;-59
2021/10/04 12:47:11;;;;;;;;;;;20.50;63.20;;;;;;5060788;28;19917;-57
2021/10/04 12:49:37;;;;;;;;;;;20.50;63.40;;;;;;5048717;28;19913;-58
2021/10/04 12:52:04;;;;;;;;;;;20.50;63.50;;;;;;5060222;28;20332;-58
2021/10/04 12:54:30;;;;;;;;;;;20.50;63.40;;;;;;5050209;28;19924;-58
2021/10/04 12:56:55;;;;;;;;;;;20.50;63.40;;;;;;5061440;28;20303;-59
2021/10/04 12:59:27;;;;;;;;;;;20.50;63.20;;;;;;5043633;28;19917;-59
2021/10/04 13:01:54;;;;;;;;;;;20.50;63.70;;;;;;5062607;28;20352;-57
2021/10/04 13:04:26;;;;;;;;;;;20.40;64.10;;;;;;5045186;28;20464;-58
2021/10/04 13:06:52;;;;;;;;;;;20.50;63.80;;;;;;5062569;28;20011;-58
2021/10/04 13:09:17;;;;;;;;;;;20.50;64.60;;;;;;5039180;28;19918;-61
2021/10/04 13:11:44;;;;;;;;;;;20.50;64.20;;;;;;5062162;28;20699;-59
2021/10/04 13:14:09;;;;;;;;;;;20.50;63.70;;;;;;5049094;28;19939;-56
2021/10/04 13:16:34;;;;;;;;;;;20.50;63.80;;;;;;5059337;28;20561;-58
2021/10/04 13:19:00;;;;;;;;;;;20.50;64.40;;;;;;5047523;28;19943;-58
2021/10/04 13:21:25;;;;;;;;;;;20.40;62.70;;;;;;5060084;28;19920;-59
2021/10/04 13:23:51;;;;;;;;;;;20.40;63.80;;;;;;5054581;28;19912;-56
2021/10/04 13:26:17;;;;;;;;;;;20.40;63.50;;;;;;5058264;28;19936;-58
2021/10/04 13:28:42;;;;;;;;;;;20.40;63.50;;;;;;5061794;28;20469;-59
2021/10/04 13:31:17;;;;;;;;;;;20.40;63.30;;;;;;5049266;28;19978;-58
2021/10/04 13:33:43;;;;;;;;;;;20.50;62.90;;;;;;5042947;28;19916;-55
2021/10/04 13:36:09;;;;;;;;;;;20.50;62.70;;;;;;5047818;28;19991;-54
2021/10/04 13:38:34;;;;;;;;;;;20.50;63.10;;;;;;5060774;28;19982;-58
2021/10/04 13:41:00;;;;;;;;;;;20.40;61.90;;;;;;5028512;28;19955;-54
2021/10/04 13:43:26;;;;;;;;;;;20.40;62.00;;;;;;5061849;28;19928;-55
2021/10/04 13:45:51;;;;;;;;;;;20.40;62.80;;;;;;5047214;28;19912;-58
2021/10/04 13:48:17;;;;;;;;;;;20.50;62.70;;;;;;5061672;28;19923;-57
2021/10/04 13:50:42;;;;;;;;;;;20.50;62.50;;;;;;5048945;28;19912;-57
2021/10/04 13:53:08;;;;;;;;;;;20.50;62.30;;;;;;5060664;28;19912;-58
2021/10/04 13:55:34;;;;;;;;;;;20.50;62.70;;;;;;5049228;28;19931;-60
2021/10/04 13:57:59;;;;;;;;;;;20.50;62.90;;;;;;5060875;28;19994;-58
2021/10/04 14:00:25;;;;;;;;;;;20.50;62.60;;;;;;5048764;28;19912;-58
2021/10/04 14:02:50;;;;;;;;;;;20.50;61.80;;;;;;5060258;28;19916;-58
2021/10/04 14:05:15;;;;;;;;;;;20.40;61.60;;;;;;5048067;28;19920;-59
2021/10/04 14:07:41;;;;;;;;;;;20.40;62.60;;;;;;5062222;28;19926;-59
2021/10/04 14:10:07;;;;;;;;;;;20.40;61.60;;;;;;5048597;28;20374;-55
2021/10/04 14:12:32;;;;;;;;;;;20.40;62.10;;;;;;5061072;28;19956;-56
2021/10/04 14:15:00;;;;;;;;;;;20.50;62.10;;;;;;5049250;28;19914;-55